Time;durP1;ratioP1;P1;durP2;ratioP2;P2;SDS_P1;SDS_P2;PMS_P1;PMS_P2;Temp;Humidity;BMP_temperature;BMP_pressure;BME280_temperature;BME280_humidity;BME280_pressure;Samples;Min_cycle;Max_cycle;Signal;HPM_P1;HPM_P2
2024/04/02 19:37:17;;;;;;;11.57;6.40;;;10.80;99.90;;;;;;5114828;27;20575;-75
2024/04/02 19:39:47;;;;;;;14.02;6.40;;;10.70;99.90;;;;;;5110306;28;20217;-75
2024/04/02 19:42:14;;;;;;;15.45;7.45;;;10.80;99.90;;;;;;5099480;28;20201;-75
2024/04/02 19:44:40;;;;;;;9.82;6.50;;;10.90;99.90;;;;;;5097412;28;20256;-74
2024/04/02 19:47:07;;;;;;;8.18;6.50;;;11.00;99.90;;;;;;5106703;28;20580;-77
2024/04/02 19:49:33;;;;;;;7.35;6.40;;;11.10;99.90;;;;;;5105116;28;20281;-75
2024/04/02 19:52:01;;;;;;;12.10;6.47;;;11.10;99.90;;;;;;5107471;28;20708;-76
2024/04/02 19:54:30;;;;;;;8.30;7.45;;;11.10;99.90;;;;;;5092776;28;20436;-75
2024/04/02 19:56:57;;;;;;;7.50;6.30;;;11.10;99.90;;;;;;5095800;28;20226;-73
2024/04/02 19:59:24;;;;;;;8.70;7.72;;;11.10;99.90;;;;;;5115168;27;20347;-75
2024/04/02 20:01:51;;;;;;;8.25;7.45;;;11.20;99.90;;;;;;5099838;28;20230;-75
2024/04/02 20:04:17;;;;;;;12.10;7.38;;;11.10;99.90;;;;;;5109476;28;20259;-75
2024/04/02 20:06:44;;;;;;;11.93;8.00;;;11.10;99.90;;;;;;5097717;28;20214;-74
2024/04/02 20:09:12;;;;;;;8.73;7.50;;;11.20;99.90;;;;;;5109465;28;20509;-75
2024/04/02 20:11:41;;;;;;;9.18;8.27;;;11.20;99.90;;;;;;5110288;28;20255;-77
2024/04/02 20:14:07;;;;;;;9.77;8.85;;;11.10;99.90;;;;;;5105351;28;20234;-74
2024/04/02 20:16:34;;;;;;;10.40;9.25;;;11.20;99.90;;;;;;5109366;28;20259;-75
2024/04/02 20:19:00;;;;;;;14.23;9.75;;;11.10;99.90;;;;;;5102561;28;20212;-73
2024/04/02 20:21:27;;;;;;;15.27;9.18;;;11.20;99.90;;;;;;5103281;28;20581;-74
2024/04/02 20:23:53;;;;;;;13.25;9.70;;;11.10;99.90;;;;;;5103863;28;20215;-75
2024/04/02 20:26:21;;;;;;;13.47;10.10;;;11.10;99.90;;;;;;5099724;28;20225;-73
2024/04/02 20:28:48;;;;;;;13.88;10.32;;;11.10;99.90;;;;;;5103799;28;20452;-77
2024/04/02 20:31:15;;;;;;;10.15;9.05;;;11.10;99.90;;;;;;5106855;28;20567;-76
2024/04/02 20:33:41;;;;;;;11.48;9.75;;;11.10;99.90;;;;;;5089830;28;20201;-73
2024/04/02 20:36:08;;;;;;;11.80;9.83;;;11.10;99.90;;;;;;5104362;28;20230;-72
2024/04/02 20:38:35;;;;;;;14.07;9.57;;;11.10;99.90;;;;;;5104388;28;20441;-75
2024/04/02 20:41:03;;;;;;;14.75;10.60;;;11.10;99.90;;;;;;5101903;28;20281;-76
2024/04/02 20:43:29;;;;;;;13.35;10.35;;;11.10;99.90;;;;;;5096399;28;20199;-74
2024/04/02 20:45:57;;;;;;;16.10;12.83;;;11.10;99.90;;;;;;5098328;28;20247;-73
2024/04/02 20:48:23;;;;;;;13.85;11.75;;;11.10;99.90;;;;;;5093668;28;20444;-77
2024/04/02 20:50:50;;;;;;;17.33;14.23;;;11.10;99.90;;;;;;5094195;28;20215;-74
2024/04/02 20:53:16;;;;;;;16.30;11.40;;;11.00;99.90;;;;;;5092022;28;21008;-76
2024/04/02 20:55:43;;;;;;;13.43;11.50;;;11.00;99.90;;;;;;5102370;28;20219;-74
2024/04/02 20:58:09;;;;;;;15.65;12.57;;;11.10;99.90;;;;;;5090731;28;20472;-79
2024/04/02 21:00:35;;;;;;;12.45;10.25;;;11.10;99.90;;;;;;5093289;28;20590;-75
2024/04/02 21:03:03;;;;;;;14.65;11.23;;;11.10;99.90;;;;;;5082351;28;20203;-78
2024/04/02 21:05:31;;;;;;;28.58;11.48;;;11.10;99.90;;;;;;5082912;28;20333;-78
2024/04/02 21:07:56;;;;;;;14.05;11.15;;;11.10;99.90;;;;;;5083679;28;20206;-74
2024/04/02 21:10:23;;;;;;;10.57;9.47;;;11.00;99.90;;;;;;5091522;28;20207;-74
2024/04/02 21:12:49;;;;;;;12.85;10.90;;;11.10;99.90;;;;;;5083364;28;20508;-73
2024/04/02 21:15:17;;;;;;;11.60;9.87;;;11.10;99.90;;;;;;5084994;28;20703;-73
2024/04/02 21:17:44;;;;;;;13.02;10.35;;;11.10;99.90;;;;;;5095587;28;20505;-73
2024/04/02 21:20:12;;;;;;;15.68;11.60;;;11.10;99.90;;;;;;5093305;28;20210;-77
2024/04/02 21:22:38;;;;;;;14.00;10.23;;;11.10;99.90;;;;;;5100221;28;20198;-77
2024/04/02 21:25:06;;;;;;;11.70;10.48;;;11.10;99.90;;;;;;5095741;28;20198;-74
2024/04/02 21:27:32;;;;;;;15.40;10.10;;;11.10;99.90;;;;;;5084040;28;20244;-76
2024/04/02 21:29:59;;;;;;;13.70;10.23;;;11.10;99.90;;;;;;5090340;28;20203;-73
2024/04/02 21:32:26;;;;;;;12.23;10.88;;;11.10;99.90;;;;;;5085740;28;20546;-74
2024/04/02 21:34:53;;;;;;;13.02;11.10;;;11.10;99.90;;;;;;5086290;28;20211;-74
2024/04/02 21:37:20;;;;;;;14.52;10.05;;;11.10;99.90;;;;;;5093339;28;20250;-75
2024/04/02 21:39:47;;;;;;;13.45;10.90;;;11.10;99.90;;;;;;5106049;28;20206;-78
2024/04/02 21:42:13;;;;;;;15.27;11.77;;;11.10;99.90;;;;;;5085141;28;20211;-74
2024/04/02 21:44:41;;;;;;;14.57;11.63;;;11.20;99.90;;;;;;5096143;28;20288;-73
2024/04/02 21:47:07;;;;;;;13.60;10.20;;;11.30;99.90;;;;;;5085781;28;20468;-73
2024/04/02 21:49:34;;;;;;;17.97;10.30;;;11.30;99.90;;;;;;5086514;28;20202;-77
2024/04/02 21:52:01;;;;;;;14.02;10.02;;;11.30;99.90;;;;;;5100930;28;20448;-73
2024/04/02 21:54:29;;;;;;;17.10;9.43;;;11.30;99.90;;;;;;5105232;28;20212;-76
2024/04/02 21:56:55;;;;;;;14.32;10.52;;;11.30;99.90;;;;;;5095218;28;20323;-74
2024/04/02 21:59:22;;;;;;;12.33;9.97;;;11.30;99.90;;;;;;5106576;28;20648;-76
2024/04/02 22:01:48;;;;;;;15.48;9.82;;;11.30;99.90;;;;;;5095874;28;20441;-73
2024/04/02 22:04:15;;;;;;;16.20;10.17;;;11.30;99.90;;;;;;5092158;28;20583;-73
2024/04/02 22:06:41;;;;;;;15.45;12.15;;;11.20;99.90;;;;;;5090669;28;20497;-71
2024/04/02 22:09:09;;;;;;;14.00;10.80;;;11.30;99.90;;;;;;5094290;28;20248;-72
2024/04/02 22:11:38;;;;;;;14.25;10.73;;;11.20;99.90;;;;;;5097979;28;20494;-74
2024/04/02 22:14:05;;;;;;;19.90;11.38;;;11.20;99.90;;;;;;5101682;28;20263;-74
2024/04/02 22:16:30;;;;;;;13.95;11.27;;;11.20;99.90;;;;;;5094351;28;20242;-73
2024/04/02 22:18:58;;;;;;;18.50;14.03;;;11.10;99.90;;;;;;5093788;28;20230;-73
2024/04/02 22:21:24;;;;;;;16.70;12.48;;;11.10;99.90;;;;;;5090506;28;20523;-74
2024/04/02 22:23:51;;;;;;;18.67;11.15;;;11.10;99.90;;;;;;5095358;28;20238;-75
2024/04/02 22:26:17;;;;;;;13.50;11.85;;;11.10;99.90;;;;;;5090224;28;20217;-74
2024/04/02 22:28:45;;;;;;;14.73;12.55;;;11.00;99.90;;;;;;5081848;28;20205;-74
2024/04/02 22:31:11;;;;;;;18.67;11.50;;;11.00;99.90;;;;;;5084942;28;20261;-74
2024/04/02 22:33:38;;;;;;;19.40;12.57;;;11.00;99.90;;;;;;5089756;28;20256;-72
2024/04/02 22:36:05;;;;;;;14.65;11.15;;;11.00;99.90;;;;;;5086833;28;20304;-74
2024/04/02 22:38:32;;;;;;;28.20;13.18;;;11.00;99.90;;;;;;5085246;28;20190;-72
2024/04/02 22:40:58;;;;;;;17.13;12.30;;;11.00;99.90;;;;;;5083943;28;20583;-73
2024/04/02 22:43:25;;;;;;;17.83;14.10;;;11.00;99.90;;;;;;5087944;28;20198;-73
2024/04/02 22:45:52;;;;;;;13.25;11.95;;;11.00;99.90;;;;;;5090986;28;20466;-74
2024/04/02 22:48:20;;;;;;;18.90;12.55;;;11.00;99.90;;;;;;5091218;28;20563;-73
2024/04/02 22:50:46;;;;;;;15.30;12.13;;;11.10;99.90;;;;;;5081770;28;20231;-73
2024/04/02 22:53:13;;;;;;;17.10;12.20;;;11.10;99.90;;;;;;5081936;28;20233;-73
2024/04/02 22:55:39;;;;;;;17.08;11.45;;;11.10;99.90;;;;;;5087159;28;20530;-74
2024/04/02 22:58:06;;;;;;;14.90;11.77;;;11.10;99.90;;;;;;5090456;28;20194;-74
2024/04/02 23:00:32;;;;;;;17.85;13.05;;;11.10;99.90;;;;;;5089144;28;20442;-74
2024/04/02 23:03:00;;;;;;;20.30;13.13;;;11.10;99.90;;;;;;5088128;28;20331;-72
2024/04/02 23:05:26;;;;;;;22.10;13.00;;;11.10;99.90;;;;;;5090000;28;20451;-76
2024/04/02 23:07:53;;;;;;;17.43;12.60;;;11.10;99.90;;;;;;5093818;28;20191;-73
2024/04/02 23:10:19;;;;;;;15.20;11.63;;;11.00;99.90;;;;;;5080590;28;20490;-76
2024/04/02 23:12:47;;;;;;;15.63;12.00;;;11.10;99.90;;;;;;5092496;28;20570;-75
2024/04/02 23:15:13;;;;;;;21.85;12.68;;;11.10;99.90;;;;;;5087465;28;20478;-75
2024/04/02 23:17:40;;;;;;;15.77;13.25;;;11.20;99.90;;;;;;5084679;28;20618;-75
2024/04/02 23:20:09;;;;;;;18.50;13.02;;;11.10;99.90;;;;;;5092362;28;20221;-74
2024/04/02 23:22:36;;;;;;;16.23;12.57;;;11.10;99.90;;;;;;5087106;28;20207;-74
2024/04/02 23:25:03;;;;;;;20.42;13.45;;;11.10;99.90;;;;;;5080726;28;20229;-73
2024/04/02 23:27:30;;;;;;;22.88;12.93;;;11.00;99.90;;;;;;5086666;28;20245;-74
2024/04/02 23:29:56;;;;;;;16.50;12.68;;;11.00;99.90;;;;;;5083641;28;20199;-73
2024/04/02 23:32:23;;;;;;;16.85;13.35;;;11.00;99.90;;;;;;5098859;28;20241;-73
2024/04/02 23:34:49;;;;;;;24.60;14.57;;;11.10;99.90;;;;;;5091655;28;20264;-76
2024/04/02 23:37:18;;;;;;;17.63;12.45;;;11.10;99.90;;;;;;5086918;28;20282;-73
2024/04/02 23:39:44;;;;;;;17.13;13.35;;;11.00;99.90;;;;;;5086483;28;20199;-74
2024/04/02 23:42:11;;;;;;;18.25;13.77;;;11.10;99.90;;;;;;5091335;28;20195;-73
2024/04/02 23:44:37;;;;;;;16.52;13.15;;;11.10;99.90;;;;;;5085175;28;20661;-75
2024/04/02 23:47:04;;;;;;;23.77;14.52;;;11.10;99.90;;;;;;5101295;28;20272;-72
2024/04/02 23:49:30;;;;;;;21.52;13.55;;;11.00;99.90;;;;;;5084905;28;20202;-73
2024/04/02 23:51:57;;;;;;;24.00;15.60;;;11.00;99.90;;;;;;5092771;28;20260;-73
2024/04/02 23:54:24;;;;;;;15.88;13.25;;;11.00;99.90;;;;;;5083733;28;20449;-75
2024/04/02 23:56:51;;;;;;;20.15;15.07;;;10.90;99.90;;;;;;5100791;28;20287;-74
2024/04/02 23:59:17;;;;;;;18.38;13.07;;;10.90;99.90;;;;;;5092427;28;20255;-71
